Time;durP1;ratioP1;P1;durP2;ratioP2;P2;SDS_P1;SDS_P2;PMS_P1;PMS_P2;Temp;Humidity;BMP_temperature;BMP_pressure;BME280_temperature;BME280_humidity;BME280_pressure;Samples;Min_cycle;Max_cycle;Signal;HPM_P1;HPM_P2
2022/09/07 04:16:55;;;;;;;6.57;3.40;;;;;;;17.78;100.00;99967.47;5286946;23;20046;-65
2022/09/07 04:19:21;;;;;;;5.13;2.65;;;;;;;17.73;100.00;99966.47;4993288;28;20042;-65
2022/09/07 04:21:46;;;;;;;6.22;3.45;;;;;;;17.68;100.00;99967.16;4992809;28;20117;-65
2022/09/07 04:24:16;;;;;;;4.80;2.90;;;;;;;17.62;100.00;99974.25;4993264;28;20054;-65
2022/09/07 04:26:42;;;;;;;6.93;3.30;;;;;;;17.58;100.00;99983.84;4993222;28;20489;-65
2022/09/07 04:29:08;;;;;;;5.10;3.22;;;;;;;17.52;100.00;99979.34;4993144;28;20458;-65
2022/09/07 04:31:34;;;;;;;7.63;4.00;;;;;;;17.50;100.00;99984.13;4993388;28;20061;-64
2022/09/07 04:34:00;;;;;;;5.78;3.05;;;;;;;17.48;100.00;99991.63;4991845;28;20039;-64
2022/09/07 04:36:27;;;;;;;7.15;3.28;;;;;;;17.45;100.00;99983.97;4992894;28;20038;-65
2022/09/07 04:38:54;;;;;;;8.20;3.63;;;;;;;17.42;100.00;99997.09;4991786;28;20509;-65
2022/09/07 04:41:21;;;;;;;9.98;3.40;;;;;;;17.41;100.00;99990.88;4992573;28;20038;-65
2022/09/07 04:43:50;;;;;;;5.90;3.28;;;;;;;17.42;100.00;99989.00;4992852;28;20034;-65
2022/09/07 04:46:22;;;;;;;4.88;3.05;;;;;;;17.42;100.00;99987.13;4992874;28;20133;-63
2022/09/07 04:48:55;;;;;;;5.25;2.88;;;;;;;17.33;100.00;99988.47;4992726;28;20038;-63
2022/09/07 04:51:23;;;;;;;7.07;2.85;;;;;;;17.27;100.00;99989.34;4992844;28;20042;-64
2022/09/07 04:53:49;;;;;;;;;;;;;;;17.22;100.00;99992.72;4993162;28;20104;-64
2022/09/07 04:56:15;;;;;;;3.58;2.40;;;;;;;17.20;100.00;99991.28;4992682;28;19914;-63
2022/09/07 04:58:41;;;;;;;4.80;2.95;;;;;;;17.20;100.00;99999.38;4991746;28;20068;-64
2022/09/07 05:01:07;;;;;;;3.90;2.67;;;;;;;17.16;100.00;99995.50;4992220;28;20134;-64
2022/09/07 05:03:35;;;;;;;5.15;3.28;;;;;;;17.15;100.00;99991.13;4992488;28;20121;-64
2022/09/07 05:06:02;;;;;;;5.70;3.20;;;;;;;17.11;100.00;99985.38;4992405;28;20489;-64
2022/09/07 05:08:28;;;;;;;4.70;3.28;;;;;;;17.07;100.00;99990.38;4992562;28;20038;-65
2022/09/07 05:10:56;;;;;;;16.40;4.28;;;;;;;17.08;100.00;99997.44;4990709;28;20042;-63
2022/09/07 05:13:22;;;;;;;7.20;3.58;;;;;;;17.01;100.00;99985.88;4992364;28;20030;-58
2022/09/07 05:15:47;;;;;;;7.28;3.20;;;;;;;17.12;100.00;99994.28;4990827;28;20378;-66
2022/09/07 05:18:13;;;;;;;4.68;3.13;;;;;;;17.10;100.00;99994.50;4991047;28;20049;-63
2022/09/07 05:20:39;;;;;;;6.47;3.45;;;;;;;17.14;100.00;99992.19;4991897;28;20349;-64
2022/09/07 05:23:05;;;;;;;11.27;5.00;;;;;;;17.16;100.00;99993.63;4991219;28;20095;-64
2022/09/07 05:25:31;;;;;;;7.32;3.30;;;;;;;17.17;100.00;99994.44;4992140;28;20038;-61
2022/09/07 05:27:57;;;;;;;6.70;4.15;;;;;;;17.22;100.00;100002.69;4991811;28;20193;-57
2022/09/07 05:30:22;;;;;;;6.47;3.17;;;;;;;17.26;100.00;100002.00;4991767;28;20197;-60
2022/09/07 05:32:48;;;;;;;5.75;3.25;;;;;;;17.28;100.00;100013.38;4974606;28;20034;-60
2022/09/07 05:35:14;;;;;;;6.57;3.38;;;;;;;17.34;100.00;100006.25;4991983;28;20454;-64
2022/09/07 05:37:40;;;;;;;6.00;3.70;;;;;;;17.40;100.00;100010.75;4991981;28;20481;-61
2022/09/07 05:40:06;;;;;;;3.08;2.45;;;;;;;17.48;100.00;100015.03;4991858;28;20053;-64
2022/09/07 05:42:34;;;;;;;7.20;3.03;;;;;;;17.54;100.00;100012.28;4991706;28;20038;-64
2022/09/07 05:44:59;;;;;;;6.85;2.75;;;;;;;17.64;100.00;100011.75;4991845;28;20370;-64
2022/09/07 05:47:25;;;;;;;6.30;3.08;;;;;;;17.72;100.00;100016.03;4991837;28;20045;-64
2022/09/07 05:49:51;;;;;;;4.97;2.92;;;;;;;17.79;100.00;100019.47;4990591;28;20144;-62
2022/09/07 05:52:16;;;;;;;4.25;2.63;;;;;;;17.88;100.00;100023.50;4991539;28;20046;-61
2022/09/07 05:54:41;;;;;;;6.03;3.17;;;;;;;17.95;100.00;100021.56;4990695;28;20042;-60
2022/09/07 05:57:10;;;;;;;8.27;3.40;;;;;;;18.01;100.00;100025.22;4990564;28;20046;-61
2022/09/07 05:59:35;;;;;;;7.65;3.03;;;;;;;18.09;100.00;100033.81;4991715;28;20034;-64
2022/09/07 06:02:01;;;;;;;5.82;2.78;;;;;;;18.14;100.00;100028.56;4991521;28;20417;-66
2022/09/07 06:04:27;;;;;;;4.82;2.70;;;;;;;18.22;100.00;100034.69;4991982;28;20066;-61
2022/09/07 06:06:52;;;;;;;7.85;3.30;;;;;;;18.32;100.00;100026.84;4990488;28;20057;-60
2022/09/07 06:09:18;;;;;;;11.43;3.45;;;;;;;18.41;100.00;100025.50;4991804;28;20116;-65
2022/09/07 06:11:43;;;;;;;3.80;2.45;;;;;;;18.53;100.00;100031.75;4995149;28;20054;-63
2022/09/07 06:14:09;;;;;;;5.25;2.60;;;;;;;18.60;100.00;100037.84;4994216;28;20120;-66
2022/09/07 06:16:34;;;;;;;11.27;2.75;;;;;;;18.69;100.00;100031.09;4995509;28;20034;-62
2022/09/07 06:19:06;;;;;;;6.55;2.80;;;;;;;18.77;100.00;100031.81;4995572;28;20393;-64
2022/09/07 06:21:37;;;;;;;5.05;2.88;;;;;;;18.86;100.00;100033.13;4995237;28;20038;-62
2022/09/07 06:24:04;;;;;;;7.53;3.65;;;;;;;18.91;100.00;100030.56;4995514;28;20038;-63
2022/09/07 06:26:30;;;;;;;4.30;2.75;;;;;;;18.96;100.00;100030.66;4995293;28;20469;-60
2022/09/07 06:28:55;;;;;;;6.63;3.05;;;;;;;19.04;100.00;100043.84;4995351;28;20052;-58
2022/09/07 06:31:23;;;;;;;4.78;2.63;;;;;;;19.14;100.00;100046.75;4994910;28;20034;-58
2022/09/07 06:33:49;;;;;;;10.50;3.10;;;;;;;19.17;100.00;100046.31;4995309;28;20165;-63
2022/09/07 06:36:20;;;;;;;5.55;2.72;;;;;;;19.20;100.00;100043.13;4995336;28;20134;-61
2022/09/07 06:38:47;;;;;;;3.17;2.58;;;;;;;19.24;100.00;100047.00;4995455;28;20038;-62
2022/09/07 06:41:15;;;;;;;8.73;2.42;;;;;;;19.27;100.00;100053.00;4994948;28;20030;-63
2022/09/07 06:43:41;;;;;;;6.63;2.60;;;;;;;19.30;100.00;100052.50;4993876;28;20417;-63
2022/09/07 06:46:07;;;;;;;5.10;2.40;;;;;;;19.29;100.00;100045.47;4995060;28;20057;-61
2022/09/07 06:48:33;;;;;;;6.00;2.75;;;;;;;19.33;100.00;100054.75;4994455;28;20038;-63
2022/09/07 06:51:01;;;;;;;3.30;2.33;;;;;;;19.37;100.00;100053.25;4994656;28;20040;-62
2022/09/07 06:53:29;;;;;;;3.50;2.25;;;;;;;19.43;100.00;100044.16;4994983;28;20030;-62
2022/09/07 06:55:55;;;;;;;4.30;2.20;;;;;;;19.52;100.00;100045.47;4994864;28;20097;-61
2022/09/07 06:58:23;;;;;;;9.50;2.22;;;;;;;19.57;100.00;100042.06;4994875;28;20054;-64
2022/09/07 07:00:49;;;;;;;3.25;2.33;;;;;;;19.69;100.00;100043.72;4994514;28;20056;-65
2022/09/07 07:03:14;;;;;;;6.13;2.63;;;;;;;19.84;100.00;100048.63;4994796;28;20421;-61
2022/09/07 07:05:40;;;;;;;3.30;2.15;;;;;;;19.99;100.00;100043.50;4994701;28;20112;-61
2022/09/07 07:08:05;;;;;;;5.97;2.20;;;;;;;20.10;100.00;100047.25;4994712;28;20039;-63
2022/09/07 07:10:35;;;;;;;7.60;2.88;;;;;;;20.26;98.55;100043.75;4994249;28;20493;-66
2022/09/07 07:13:01;;;;;;;7.15;2.70;;;;;;;20.42;96.80;100050.31;4994613;28;20038;-63
2022/09/07 07:15:27;;;;;;;5.45;3.00;;;;;;;20.59;95.48;100051.16;4976855;28;20038;-60
2022/09/07 07:17:52;;;;;;;3.58;1.80;;;;;;;20.82;93.90;100052.94;4994462;28;20070;-61
2022/09/07 07:20:18;;;;;;;3.85;2.42;;;;;;;20.91;92.11;100050.63;4994246;28;20066;-62
2022/09/07 07:22:48;;;;;;;5.57;2.05;;;;;;;21.05;90.79;100057.34;4993494;28;20038;-66
2022/09/07 07:25:14;;;;;;;3.75;2.35;;;;;;;21.19;89.31;100060.56;4992998;28;20042;-65
2022/09/07 07:27:39;;;;;;;3.75;2.25;;;;;;;21.33;88.54;100050.25;4994349;28;20049;-63
2022/09/07 07:30:05;;;;;;;4.13;2.05;;;;;;;21.46;87.07;100057.19;4992939;28;20042;-61
2022/09/07 07:32:30;;;;;;;3.35;1.90;;;;;;;21.58;86.41;100058.75;4994056;28;20121;-61
2022/09/07 07:34:56;;;;;;;7.80;2.72;;;;;;;21.68;86.48;100058.03;4994372;28;20056;-63
2022/09/07 07:37:21;;;;;;;4.93;2.15;;;;;;;21.78;86.31;100065.47;4994041;28;20034;-64
2022/09/07 07:39:49;;;;;;;4.40;2.53;;;;;;;21.89;86.17;100062.66;4994272;28;20515;-60
2022/09/07 07:42:15;;;;;;;3.08;2.15;;;;;;;21.90;85.94;100064.28;4994048;28;20410;-62
2022/09/07 07:44:40;;;;;;;4.30;2.47;;;;;;;21.98;85.83;100073.06;4994033;28;20046;-61
2022/09/07 07:47:06;;;;;;;4.05;2.15;;;;;;;22.01;85.84;100075.28;4994073;28;20042;-64
2022/09/07 07:49:31;;;;;;;7.95;2.35;;;;;;;22.13;84.70;100081.41;4992759;28;20113;-64
2022/09/07 07:51:56;;;;;;;3.55;2.28;;;;;;;22.17;82.50;100079.84;4993453;28;20489;-64
2022/09/07 07:54:22;;;;;;;5.65;2.75;;;;;;;22.21;82.85;100081.78;4960331;28;20104;-64
2022/09/07 07:56:48;;;;;;;4.10;1.80;;;;;;;22.23;82.08;100084.22;4993849;28;20039;-63
2022/09/07 07:59:13;;;;;;;6.30;2.10;;;;;;;22.38;81.72;100083.59;4993805;28;20046;-64
2022/09/07 08:01:38;;;;;;;7.68;2.85;;;;;;;22.42;81.69;100084.72;4993358;28;20073;-63
2022/09/07 08:04:04;;;;;;;6.10;1.85;;;;;;;22.49;81.52;100088.03;4993804;28;20034;-64
2022/09/07 08:06:29;;;;;;;5.93;2.47;;;;;;;22.58;80.47;100091.16;4993398;28;20034;-64
2022/09/07 08:08:55;;;;;;;3.42;2.00;;;;;;;22.65;80.17;100086.31;4992308;28;20042;-64
2022/09/07 08:11:21;;;;;;;3.40;2.25;;;;;;;22.71;79.97;100088.00;4993149;28;20157;-64
2022/09/07 08:13:49;;;;;;;2.87;1.77;;;;;;;22.74;80.67;100091.03;4993585;28;20400;-64
2022/09/07 08:16:16;;;;;;;3.17;1.52;;;;;;;22.75;81.00;100097.25;4991863;28;20289;-64
2022/09/07 08:18:42;;;;;;;2.80;1.63;;;;;;;22.86;80.36;100109.91;4993340;28;20042;-59
2022/09/07 08:21:11;;;;;;;2.92;1.77;;;;;;;22.93;78.79;100102.34;4993103;28;20049;-66
2022/09/07 08:23:39;;;;;;;5.07;2.30;;;;;;;22.96;78.44;100107.28;4993324;28;20042;-65
2022/09/07 08:26:05;;;;;;;2.55;1.80;;;;;;;23.06;78.46;100111.97;4991784;28;20073;-61
2022/09/07 08:28:36;;;;;;;2.42;1.63;;;;;;;23.08;79.26;100112.53;4991891;28;20111;-65
2022/09/07 08:31:14;;;;;;;3.72;1.92;;;;;;;23.17;79.32;100110.19;4992862;28;20042;-61
2022/09/07 08:33:39;;;;;;;;;;;;;;;23.42;80.13;100099.50;4993307;28;20493;-61
2022/09/07 08:36:07;;;;;;;4.28;1.90;;;;;;;23.45;78.31;100106.31;4993087;28;19964;-64
2022/09/07 08:38:34;;;;;;;4.00;1.88;;;;;;;23.50;78.25;100107.16;4993207;28;20042;-62
2022/09/07 08:41:01;;;;;;;;;;;;;;;23.58;75.98;100102.31;4993218;28;20405;-63
2022/09/07 08:43:44;;;;;;;3.92;1.88;;;;;;;23.71;76.59;100110.84;4992836;28;19914;-64
2022/09/07 08:46:28;;;;;;;4.22;1.98;;;;;;;23.76;75.29;100110.88;4992928;28;20046;-64
2022/09/07 08:48:56;;;;;;;5.15;2.00;;;;;;;23.74;74.68;100114.97;4992652;28;20429;-63
2022/09/07 08:51:35;;;;;;;2.53;2.10;;;;;;;23.83;75.01;100113.38;4992434;28;20493;-64
2022/09/07 08:54:03;;;;;;;1.95;1.65;;;;;;;23.82;73.78;100109.84;4992666;28;20053;-64
2022/09/07 08:56:41;;;;;;;3.05;2.10;;;;;;;24.07;73.59;100100.97;4992522;28;20046;-63
2022/09/07 08:59:30;;;;;;;4.28;2.30;;;;;;;24.19;73.33;100102.63;4992685;28;20034;-64
2022/09/07 09:01:56;;;;;;;3.33;2.00;;;;;;;24.13;71.81;100095.56;4992409;28;20037;-64
2022/09/07 09:04:27;;;;;;;2.60;1.70;;;;;;;24.27;71.74;100104.88;4992565;28;20050;-64
2022/09/07 09:07:17;;;;;;;3.33;2.13;;;;;;;24.50;70.49;100107.13;4992187;28;20121;-64
2022/09/07 09:09:44;;;;;;;2.10;1.58;;;;;;;24.51;71.14;100107.94;4992448;28;20426;-64
2022/09/07 09:12:32;;;;;;;2.72;1.65;;;;;;;24.72;72.21;100109.66;4992128;28;20030;-64
2022/09/07 09:15:17;;;;;;;4.20;2.13;;;;;;;24.87;70.30;100108.84;4992316;28;20053;-64
2022/09/07 09:17:55;;;;;;;3.95;1.70;;;;;;;25.19;68.85;100103.16;4992287;28;20046;-64
2022/09/07 09:20:43;;;;;;;6.95;2.67;;;;;;;25.20;67.73;100103.97;4991947;28;20041;-64
2022/09/07 09:23:13;;;;;;;2.33;1.42;;;;;;;25.41;69.16;100097.41;4975499;28;20486;-66
2022/09/07 09:25:53;;;;;;;2.85;2.22;;;;;;;25.46;67.33;100088.41;4991812;28;20038;-62
2022/09/07 09:28:19;;;;;;;3.15;2.20;;;;;;;25.77;65.54;100081.81;4992197;28;20034;-61
2022/09/07 09:30:46;;;;;;;3.13;1.70;;;;;;;25.91;64.84;100084.78;4991754;28;20050;-64
2022/09/07 09:33:22;;;;;;;4.72;1.83;;;;;;;26.03;63.16;100088.00;4992307;28;20038;-64
2022/09/07 09:35:50;;;;;;;3.40;1.87;;;;;;;26.31;64.25;100085.69;4992027;28;20516;-64
2022/09/07 09:38:29;;;;;;;3.88;1.75;;;;;;;26.51;63.05;100082.88;4991999;28;20035;-64
2022/09/07 09:40:56;;;;;;;3.42;1.38;;;;;;;26.44;62.32;100085.91;4991640;28;20030;-61
2022/09/07 09:43:33;;;;;;;3.72;1.45;;;;;;;26.38;62.68;100080.72;4991963;28;20073;-64
2022/09/07 09:46:00;;;;;;;2.75;1.60;;;;;;;26.21;64.76;100073.75;4991547;28;20153;-61
2022/09/07 09:48:32;;;;;;;2.83;1.98;;;;;;;26.15;63.39;100076.78;4991921;28;20049;-65
2022/09/07 09:51:00;;;;;;;3.10;1.60;;;;;;;26.32;62.93;100074.47;4990400;28;20466;-63
2022/09/07 09:53:37;;;;;;;2.78;1.70;;;;;;;26.38;63.37;100075.28;4991804;28;20027;-63
2022/09/07 09:56:03;;;;;;;;;;;;;;;26.60;61.41;100066.69;4992187;28;20042;-64
2022/09/07 09:58:35;;;;;;;2.60;1.70;;;;;;;26.86;62.22;100062.66;4990664;28;19926;-64
2022/09/07 10:01:06;;;;;;;2.33;1.58;;;;;;;27.16;62.35;100067.09;4991355;28;20501;-65
2022/09/07 10:03:33;;;;;;;4.40;1.55;;;;;;;27.39;59.74;100056.50;4991825;28;20051;-65
2022/09/07 10:06:02;;;;;;;3.63;1.73;;;;;;;27.12;60.18;100059.75;4991863;28;20042;-61
2022/09/07 10:08:33;;;;;;;2.25;1.40;;;;;;;27.51;58.17;100045.97;4991624;28;20112;-64
2022/09/07 10:11:12;;;;;;;1.52;1.20;;;;;;;28.00;60.50;100050.34;4991305;28;20440;-63
2022/09/07 10:13:53;;;;;;;2.50;1.40;;;;;;;28.57;55.86;100049.31;4991800;28;20477;-63
2022/09/07 10:16:36;;;;;;;1.35;1.23;;;;;;;28.88;57.45;100052.34;4991541;28;20092;-62
2022/09/07 10:19:01;;;;;;;2.22;1.45;;;;;;;29.31;52.87;100043.16;4991699;28;20038;-64
2022/09/07 10:21:31;;;;;;;2.53;1.50;;;;;;;30.10;52.40;100043.00;4990092;28;20084;-63
2022/09/07 10:24:12;;;;;;;2.70;1.55;;;;;;;30.15;50.42;100051.13;4990457;28;20038;-65
2022/09/07 10:26:39;;;;;;;2.58;1.58;;;;;;;30.49;47.30;100062.44;4991657;28;20034;-65
2022/09/07 10:29:11;;;;;;;2.75;1.40;;;;;;;30.89;49.21;100057.09;4990612;28;20498;-63
2022/09/07 10:31:51;;;;;;;2.60;1.45;;;;;;;31.42;45.84;100053.53;5028346;23;20053;-64
2022/09/07 10:34:25;;;;;;;3.70;1.98;;;;;;;31.49;43.98;100048.41;4991791;28;20034;-63
2022/09/07 10:37:03;;;;;;;6.45;4.18;;;;;;;31.72;45.25;100045.59;4991765;28;20485;-63
2022/09/07 10:40:11;;;;;;;1.67;1.48;;;;;;;32.03;43.06;100043.59;4991804;28;20042;-64
2022/09/07 10:42:44;;;;;;;2.00;1.40;;;;;;;32.17;44.21;100042.63;4962355;28;20046;-62
2022/09/07 10:45:19;;;;;;;2.25;1.20;;;;;;;32.30;40.70;100045.25;4972243;28;20043;-63
2022/09/07 10:48:13;;;;;;;2.08;1.08;;;;;;;32.17;40.52;100031.63;4971015;28;20041;-63
2022/09/07 10:50:54;;;;;;;1.27;1.05;;;;;;;32.77;39.97;100039.91;4970543;28;20054;-62
2022/09/07 10:53:33;;;;;;;3.47;1.23;;;;;;;32.67;40.04;100030.03;4972049;28;20027;-63
2022/09/07 10:56:24;;;;;;;1.95;1.33;;;;;;;32.26;41.10;100029.66;4972129;28;20038;-60
2022/09/07 10:58:59;;;;;;;2.60;1.38;;;;;;;32.80;39.77;100021.88;4975222;28;20493;-62
2022/09/07 11:02:09;;;;;;;3.40;1.13;;;;;;;32.18;39.17;100027.72;4975123;28;20046;-63
2022/09/07 11:04:51;;;;;;;1.35;1.00;;;;;;;32.52;39.08;100018.69;4976394;28;20041;-62
2022/09/07 11:07:28;;;;;;;1.25;1.05;;;;;;;32.20;40.89;100023.50;4974125;28;20125;-62
2022/09/07 11:09:58;;;;;;;;;;;;;;;32.99;37.65;100002.25;4975783;28;20031;-62
2022/09/07 11:12:29;;;;;;;1.40;1.23;;;;;;;32.64;36.88;100003.09;4975168;28;20432;-62
2022/09/07 11:15:11;;;;;;;1.27;1.13;;;;;;;32.72;38.10;100000.66;4975392;28;20129;-62
2022/09/07 11:17:47;;;;;;;1.10;1.00;;;;;;;33.02;38.74;99999.66;4975257;28;20394;-62
2022/09/07 11:20:23;;;;;;;1.65;1.15;;;;;;;33.82;37.04;99998.97;4974885;28;20043;-63
2022/09/07 11:23:17;;;;;;;1.65;1.27;;;;;;;34.22;37.01;99986.34;4975361;28;20379;-63
2022/09/07 11:25:55;;;;;;;3.22;1.65;;;;;;;34.54;35.67;99989.53;4975132;28;20035;-63
2022/09/07 11:28:25;;;;;;;2.08;1.08;;;;;;;34.57;37.19;99994.41;4975161;28;20406;-64
2022/09/07 11:30:57;;;;;;;4.70;0.93;;;;;;;34.75;36.66;99989.47;4974628;28;20133;-64
2022/09/07 11:33:34;;;;;;;2.33;1.05;;;;;;;34.27;36.10;99986.16;4975032;28;20038;-64
2022/09/07 11:36:15;;;;;;;2.53;1.08;;;;;;;34.00;34.85;99981.19;4974993;28;20046;-63
2022/09/07 11:38:47;;;;;;;1.92;1.30;;;;;;;34.27;35.06;99988.13;4974976;28;20113;-63
2022/09/07 11:41:26;;;;;;;2.05;1.52;;;;;;;33.56;36.90;99988.09;4974702;28;20027;-63
2022/09/07 11:43:55;;;;;;;1.35;0.98;;;;;;;33.05;36.54;99982.44;4973748;28;20617;-63
2022/09/07 11:46:31;;;;;;;1.20;0.80;;;;;;;32.81;36.95;99987.69;4974878;28;20408;-63
2022/09/07 11:48:57;;;;;;;1.93;1.10;;;;;;;33.23;36.99;99988.69;4974790;28;20042;-63
2022/09/07 11:51:25;;;;;;;1.35;1.02;;;;;;;32.54;39.10;99975.88;4974192;28;20402;-63
2022/09/07 11:53:59;;;;;;;2.20;0.88;;;;;;;31.82;39.90;99987.47;4974694;28;20041;-63
2022/09/07 11:56:28;;;;;;;1.70;1.00;;;;;;;31.46;40.17;99977.50;4973372;28;20062;-63
2022/09/07 11:59:00;;;;;;;1.08;0.90;;;;;;;31.81;39.78;99978.41;4974643;28;20670;-63
2022/09/07 12:02:10;;;;;;;1.08;0.98;;;;;;;32.52;39.01;99967.13;4974134;28;20026;-63
2022/09/07 12:05:01;;;;;;;1.98;0.90;;;;;;;33.35;37.50;99966.72;4974558;28;20045;-63
2022/09/07 12:07:40;;;;;;;1.15;0.90;;;;;;;33.21;38.00;99978.00;4967323;28;20042;-63
2022/09/07 12:10:33;;;;;;;1.52;0.90;;;;;;;33.75;36.07;99963.63;4964207;28;21138;-62
2022/09/07 12:13:07;;;;;;;0.80;0.80;;;;;;;34.43;34.31;99961.53;4963421;28;20027;-63
2022/09/07 12:15:51;;;;;;;2.25;1.20;;;;;;;34.34;34.62;99957.16;4962737;28;20079;-63
2022/09/07 12:18:52;;;;;;;2.17;0.90;;;;;;;32.97;36.56;99955.69;4963051;28;20038;-64
2022/09/07 12:21:33;;;;;;;1.02;0.93;;;;;;;33.14;35.80;99944.59;4962891;28;20082;-64
2022/09/07 12:23:59;;;;;;;1.45;0.77;;;;;;;33.28;35.40;99940.81;4963311;28;20035;-63
2022/09/07 12:26:37;;;;;;;1.53;1.10;;;;;;;34.00;35.32;99946.06;4960981;28;20050;-64
2022/09/07 12:29:16;;;;;;;1.38;0.93;;;;;;;34.15;34.98;99949.38;4963736;28;20173;-64
2022/09/07 12:31:48;;;;;;;1.30;0.95;;;;;;;34.27;34.97;99952.19;4966392;28;20122;-64
2022/09/07 12:34:38;;;;;;;3.05;0.90;;;;;;;33.74;34.61;99940.72;4973804;28;20081;-63
2022/09/07 12:37:25;;;;;;;1.20;0.93;;;;;;;33.07;35.46;99944.31;4973846;28;20042;-63
2022/09/07 12:40:28;;;;;;;2.20;1.00;;;;;;;33.92;35.53;99940.63;4973718;28;20125;-63
2022/09/07 12:43:11;;;;;;;1.33;0.80;;;;;;;33.82;34.19;99932.69;4973762;28;20042;-63
2022/09/07 12:45:37;;;;;;;0.90;0.60;;;;;;;34.60;32.82;99932.88;4973748;28;20105;-64
2022/09/07 12:48:14;;;;;;;0.60;0.60;;;;;;;35.12;33.12;99932.28;4973819;28;20050;-63
2022/09/07 12:50:59;;;;;;;1.85;0.90;;;;;;;35.23;32.02;99927.13;4973444;28;20094;-63
2022/09/07 12:53:39;;;;;;;1.35;0.93;;;;;;;36.04;30.98;99917.78;4973681;28;20037;-63
2022/09/07 12:56:04;;;;;;;0.95;0.80;;;;;;;35.94;30.13;99921.06;4972338;28;20581;-63
2022/09/07 12:58:42;;;;;;;2.60;0.80;;;;;;;35.65;30.71;99919.38;4973536;28;20118;-63
2022/09/07 13:01:31;;;;;;;0.68;0.60;;;;;;;34.84;32.05;99923.81;4973096;28;20117;-63
2022/09/07 13:04:21;;;;;;;0.70;0.70;;;;;;;34.35;32.36;99925.63;4973360;28;20042;-62
2022/09/07 13:07:21;;;;;;;0.70;0.70;;;;;;;34.86;32.06;99924.28;4973382;28;20054;-62
2022/09/07 13:10:02;;;;;;;2.28;0.88;;;;;;;34.77;32.33;99920.81;4949126;28;20102;-62
2022/09/07 13:12:33;;;;;;;1.02;0.90;;;;;;;34.79;32.45;99918.50;4972934;28;20108;-62
2022/09/07 13:15:00;;;;;;;1.05;0.73;;;;;;;34.72;33.26;99919.06;4973190;28;20038;-62
2022/09/07 13:17:35;;;;;;;1.70;1.00;;;;;;;34.42;33.04;99914.84;4973145;28;20047;-63
2022/09/07 13:20:00;;;;;;;1.55;0.93;;;;;;;34.34;32.68;99910.19;4972625;28;20375;-63
2022/09/07 13:22:31;;;;;;;1.20;0.73;;;;;;;34.25;33.55;99908.31;4973059;28;20049;-63
2022/09/07 13:25:20;;;;;;;0.70;0.70;;;;;;;34.48;32.92;99905.19;4973102;28;20121;-63
2022/09/07 13:27:56;;;;;;;1.10;0.70;;;;;;;34.21;31.99;99903.81;4972010;28;20088;-63
2022/09/07 13:31:05;;;;;;;0.85;0.73;;;;;;;34.86;32.97;99910.44;4972516;28;20030;-63
2022/09/07 13:33:33;;;;;;;0.82;0.70;;;;;;;34.64;32.36;99894.28;4953485;28;20422;-63
2022/09/07 13:36:04;;;;;;;1.55;1.20;;;;;;;34.16;32.96;99895.72;4973117;28;20409;-63
2022/09/07 13:38:33;;;;;;;0.68;0.52;;;;;;;34.01;33.54;99892.44;4956587;28;20031;-63
2022/09/07 13:41:20;;;;;;;2.40;0.90;;;;;;;33.39;34.00;99895.16;4953271;28;20023;-63
2022/09/07 13:43:47;;;;;;;1.58;0.90;;;;;;;32.68;35.46;99899.31;4953553;28;20039;-63
2022/09/07 13:46:33;;;;;;;1.10;0.88;;;;;;;32.51;35.30;99890.28;4969855;28;20062;-63
2022/09/07 13:49:31;;;;;;;;;;;;;;;31.66;37.35;99893.50;4972846;28;20038;-63
2022/09/07 13:52:11;;;;;;;1.48;0.77;;;;;;;31.13;38.85;99893.69;4950009;28;19973;-63
2022/09/07 13:54:48;;;;;;;0.88;0.68;;;;;;;30.91;39.54;99892.66;4972693;28;20048;-63
2022/09/07 13:57:52;;;;;;;1.10;0.75;;;;;;;30.35;39.40;99902.31;4972704;28;20042;-63
2022/09/07 14:00:18;;;;;;;2.75;0.88;;;;;;;30.30;39.76;99887.91;4972243;28;20069;-63
2022/09/07 14:02:49;;;;;;;1.05;0.95;;;;;;;30.14;38.89;99891.03;4972600;28;20039;-63
2022/09/07 14:05:19;;;;;;;1.30;0.85;;;;;;;29.97;40.56;99885.38;4972634;28;20030;-63
2022/09/07 14:07:46;;;;;;;1.83;0.80;;;;;;;30.03;40.68;99877.81;4972648;28;20046;-63
2022/09/07 14:10:19;;;;;;;;;;;;;;;29.68;40.76;99872.88;4972661;28;20451;-62
2022/09/07 14:12:51;;;;;;;0.93;0.70;;;;;;;29.81;40.57;99873.94;4972953;28;19918;-62
2022/09/07 14:15:21;;;;;;;0.82;0.82;;;;;;;29.72;40.67;99868.38;4972532;28;20050;-62
2022/09/07 14:17:48;;;;;;;1.08;0.70;;;;;;;29.40;40.55;99869.31;4972519;28;20038;-63
2022/09/07 14:20:16;;;;;;;0.80;0.70;;;;;;;29.36;41.91;99862.84;4972273;28;20031;-63
2022/09/07 14:22:42;;;;;;;1.30;0.80;;;;;;;29.20;41.32;99856.84;4972561;28;20066;-62
2022/09/07 14:25:16;;;;;;;1.52;0.73;;;;;;;29.11;42.12;99855.97;4971260;28;20085;-63
2022/09/07 14:27:44;;;;;;;0.57;0.57;;;;;;;28.97;42.15;99857.91;4971282;28;20122;-63
2022/09/07 14:30:28;;;;;;;1.23;0.95;;;;;;;29.00;42.22;99853.72;4972369;28;20129;-63
2022/09/07 14:32:58;;;;;;;1.70;0.90;;;;;;;29.00;42.83;99846.31;4976665;28;20544;-63
2022/09/07 14:35:27;;;;;;;1.52;0.77;;;;;;;29.04;42.43;99838.31;4975234;28;20102;-62
2022/09/07 14:37:53;;;;;;;1.08;0.88;;;;;;;28.91;43.88;99843.47;4976059;28;20035;-62
2022/09/07 14:40:24;;;;;;;1.33;0.80;;;;;;;29.07;42.77;99841.22;4975847;28;20573;-62
2022/09/07 14:42:54;;;;;;;1.52;0.80;;;;;;;29.24;42.77;99848.84;4975921;28;20031;-62
2022/09/07 14:45:22;;;;;;;0.63;0.63;;;;;;;29.32;42.27;99844.56;4975889;28;20042;-63
2022/09/07 14:47:55;;;;;;;1.45;0.80;;;;;;;29.32;42.70;99833.59;4975986;28;20038;-63
2022/09/07 14:50:25;;;;;;;1.35;0.80;;;;;;;29.09;42.86;99828.03;4975389;28;20053;-62
2022/09/07 14:52:54;;;;;;;0.98;0.82;;;;;;;29.05;41.55;99826.22;4975737;28;20046;-62
2022/09/07 14:55:34;;;;;;;1.02;0.80;;;;;;;28.99;41.44;99822.75;4975721;28;20046;-63
2022/09/07 14:58:20;;;;;;;1.38;0.70;;;;;;;29.04;41.58;99817.19;4974418;28;20043;-64
2022/09/07 15:00:51;;;;;;;1.67;1.13;;;;;;;28.96;41.93;99814.34;4975300;28;20045;-64
2022/09/07 15:03:27;;;;;;;0.60;0.60;;;;;;;29.15;42.10;99821.34;4975679;28;20049;-64
2022/09/07 15:05:58;;;;;;;1.48;1.00;;;;;;;29.12;40.96;99821.94;4975485;28;20494;-63
2022/09/07 15:08:46;;;;;;;1.13;1.02;;;;;;;29.06;41.93;99827.84;4975515;28;20081;-64
2022/09/07 15:11:22;;;;;;;2.13;0.98;;;;;;;29.11;41.91;99825.00;4975050;28;20039;-63
2022/09/07 15:13:57;;;;;;;1.80;0.70;;;;;;;28.98;42.21;99814.84;4975376;28;20050;-63
2022/09/07 15:16:34;;;;;;;3.70;1.48;;;;;;;28.73;42.24;99816.94;4975204;28;20082;-64
2022/09/07 15:19:01;;;;;;;1.63;1.08;;;;;;;28.81;42.24;99818.97;4975340;28;20039;-64
2022/09/07 15:21:32;;;;;;;1.85;1.10;;;;;;;28.45;43.28;99812.56;4974757;28;20045;-64
2022/09/07 15:23:59;;;;;;;1.90;1.38;;;;;;;28.44;42.58;99814.50;4975235;28;20038;-64
2022/09/07 15:26:29;;;;;;;1.02;0.85;;;;;;;28.38;43.74;99819.25;4975103;28;20058;-64
2022/09/07 15:28:55;;;;;;;2.05;0.70;;;;;;;28.43;43.63;99806.56;4975165;28;20553;-64
2022/09/07 15:31:20;;;;;;;0.90;0.75;;;;;;;28.44;43.26;99817.25;4974450;28;20133;-64
2022/09/07 15:33:46;;;;;;;0.63;0.57;;;;;;;28.35;44.05;99828.06;4974860;28;20092;-64
2022/09/07 15:36:14;;;;;;;0.80;0.80;;;;;;;28.25;43.82;99824.66;4975065;28;20398;-64
2022/09/07 15:38:39;;;;;;;0.95;0.82;;;;;;;28.12;43.87;99820.78;4974889;28;20050;-64
2022/09/07 15:41:05;;;;;;;1.17;1.00;;;;;;;28.02;43.97;99821.75;4974643;28;20382;-64
2022/09/07 15:43:31;;;;;;;2.53;1.10;;;;;;;27.98;44.52;99822.66;4973953;28;20035;-63
2022/09/07 15:45:56;;;;;;;0.60;0.60;;;;;;;27.72;45.09;99820.34;4974768;28;20077;-64
2022/09/07 15:48:26;;;;;;;1.17;0.80;;;;;;;27.62;45.13;99811.41;4974558;28;20042;-57
2022/09/07 15:51:01;;;;;;;0.68;0.60;;;;;;;27.56;45.23;99822.44;4974416;28;20166;-60
2022/09/07 15:53:26;;;;;;;2.90;1.00;;;;;;;27.35;45.66;99826.56;4973449;28;20038;-59
2022/09/07 15:55:53;;;;;;;1.25;0.70;;;;;;;27.21;46.19;99826.47;4974567;28;20410;-59
2022/09/07 15:58:18;;;;;;;;;;;;;;;27.18;46.09;99838.00;4975620;28;20045;-58
2022/09/07 16:00:44;;;;;;;1.53;1.13;;;;;;;27.08;46.15;99832.66;4974271;28;19918;-59
2022/09/07 16:03:10;;;;;;;0.85;0.80;;;;;;;27.00;46.84;99839.56;4974535;28;20434;-61
2022/09/07 16:05:39;;;;;;;0.95;0.80;;;;;;;26.85;46.85;99847.13;4974458;28;20042;-60
2022/09/07 16:08:05;;;;;;;0.70;0.70;;;;;;;26.75;46.99;99854.34;4974873;28;20077;-60